Time;durP1;ratioP1;P1;durP2;ratioP2;P2;SDS_P1;SDS_P2;PMS_P1;PMS_P2;Temp;Humidity;BMP_temperature;BMP_pressure;BME280_temperature;BME280_humidity;BME280_pressure;Samples;Min_cycle;Max_cycle;Signal;HPM_P1;HPM_P2
2022/05/02 00:01:06;;;;;;;4.68;4.13;;;;;;;11.07;56.57;101532.34;7397550;19;20028;-65
2022/05/02 00:03:34;;;;;;;5.85;4.50;;;;;;;11.06;56.62;101526.22;7397409;19;20039;-64
2022/05/02 00:06:03;;;;;;;6.00;4.38;;;;;;;11.05;56.70;101523.59;7399548;19;20478;-66
2022/05/02 00:08:31;;;;;;;7.88;4.72;;;;;;;11.04;56.80;101527.13;7397076;19;20391;-65
2022/05/02 00:11:01;;;;;;;5.95;4.30;;;;;;;11.02;56.81;101526.25;7398142;19;20039;-65
2022/05/02 00:13:29;;;;;;;6.88;5.90;;;;;;;11.00;56.79;101522.78;7397606;19;20043;-65
2022/05/02 00:15:58;;;;;;;9.05;4.85;;;;;;;11.00;57.01;101520.16;7399653;19;20036;-63
2022/05/02 00:18:28;;;;;;;6.00;4.82;;;;;;;10.96;57.00;101516.69;7399612;19;20022;-63
2022/05/02 00:20:56;;;;;;;7.88;4.70;;;;;;;10.91;57.11;101519.38;7396563;19;20370;-64
2022/05/02 00:23:24;;;;;;;6.22;5.05;;;;;;;10.90;57.28;101508.88;7397223;19;20035;-64
2022/05/02 00:25:52;;;;;;;8.95;5.13;;;;;;;10.86;57.27;101515.91;7399251;19;20031;-64
2022/05/02 00:28:23;;;;;;;5.72;5.13;;;;;;;10.84;57.58;101512.47;7398756;19;20504;-64
2022/05/02 00:30:51;;;;;;;6.45;4.80;;;;;;;10.82;57.52;101516.84;7397873;19;20035;-64
2022/05/02 00:33:20;;;;;;;10.52;5.65;;;;;;;10.79;57.64;101511.63;7399002;19;20032;-64
2022/05/02 00:35:48;;;;;;;8.20;5.03;;;;;;;10.76;57.62;101511.66;7399011;19;20036;-64
2022/05/02 00:38:17;;;;;;;5.97;4.85;;;;;;;10.73;57.74;101503.84;7399103;19;20031;-65
2022/05/02 00:40:51;;;;;;;7.20;5.07;;;;;;;10.71;57.93;101508.22;7396827;19;20035;-64
2022/05/02 00:43:19;;;;;;;6.32;4.75;;;;;;;10.68;57.91;101503.88;7397253;19;20019;-64
2022/05/02 00:45:50;;;;;;;7.60;5.10;;;;;;;10.66;58.21;101508.25;7393631;19;20022;-64
2022/05/02 00:48:18;;;;;;;7.20;5.30;;;;;;;10.63;58.13;101504.78;7396138;19;20584;-64
2022/05/02 00:50:47;;;;;;;7.40;5.47;;;;;;;10.61;58.22;101514.44;7396131;19;20019;-64
2022/05/02 00:53:17;;;;;;;5.85;5.22;;;;;;;10.59;58.41;101506.59;7398380;19;20023;-65
2022/05/02 00:55:45;;;;;;;6.70;4.85;;;;;;;10.57;58.28;101505.72;7397628;19;20022;-65
2022/05/02 00:58:16;;;;;;;8.70;5.22;;;;;;;10.54;58.53;101504.00;7396567;19;20015;-64
2022/05/02 01:00:45;;;;;;;6.30;4.80;;;;;;;10.50;58.49;101502.31;7397168;19;20091;-64
2022/05/02 01:03:16;;;;;;;6.97;5.13;;;;;;;10.47;58.76;101502.31;7396328;19;20046;-65
2022/05/02 01:08:27;;;;;;;6.95;5.53;;;;;;;10.42;58.81;101504.09;7395208;19;20078;-64
2022/05/02 01:10:57;;;;;;;6.80;5.57;;;;;;;10.40;58.86;101503.25;7397195;19;20482;-65
2022/05/02 01:13:39;;;;;;;7.22;5.82;;;;;;;10.38;59.03;101502.41;7399926;19;20509;-65
2022/05/02 01:16:16;;;;;;;8.02;5.90;;;;;;;10.35;59.24;101497.13;7396326;19;20019;-65
2022/05/02 01:18:50;;;;;;;6.55;5.85;;;;;;;10.31;59.27;101503.31;7396058;19;20018;-65
2022/05/02 01:21:21;;;;;;;;;;;;;;;10.24;59.73;101503.34;7396499;19;20018;-65
2022/05/02 01:23:51;;;;;;;8.20;6.00;;;;;;;10.18;59.12;101494.66;7395608;19;19922;-65
2022/05/02 01:26:20;;;;;;;7.43;5.38;;;;;;;10.14;59.51;101498.22;7397698;19;20036;-65
2022/05/02 01:28:49;;;;;;;9.38;5.60;;;;;;;10.11;59.71;101491.22;7397183;19;20045;-65
2022/05/02 01:31:19;;;;;;;6.20;5.25;;;;;;;10.10;59.92;101492.13;7395194;19;20019;-65
2022/05/02 01:33:49;;;;;;;7.90;5.80;;;;;;;10.07;59.87;101484.25;7395164;19;20023;-65
2022/05/02 01:36:18;;;;;;;8.98;5.82;;;;;;;10.06;59.88;101479.88;7398507;19;20035;-65
2022/05/02 01:38:49;;;;;;;9.43;6.88;;;;;;;10.05;60.16;101473.78;7396867;19;20022;-65
2022/05/02 01:41:17;;;;;;;9.40;5.97;;;;;;;10.05;60.25;101472.94;7395497;19;20035;-65
2022/05/02 01:43:45;;;;;;;8.10;5.50;;;;;;;10.04;60.15;101471.19;7394864;19;20458;-65
2022/05/02 01:46:14;;;;;;;6.65;5.78;;;;;;;10.03;60.23;101466.81;7394907;19;20023;-65
2022/05/02 01:48:43;;;;;;;11.10;6.18;;;;;;;10.02;60.31;101463.34;7396503;19;20018;-65
2022/05/02 01:51:11;;;;;;;7.70;5.80;;;;;;;10.01;60.46;101466.84;7395118;19;20026;-65
2022/05/02 01:53:39;;;;;;;7.32;6.28;;;;;;;10.00;60.38;101465.09;7397142;19;20039;-65
2022/05/02 01:56:10;;;;;;;7.53;5.55;;;;;;;9.99;60.66;101457.25;7394427;19;20014;-65
2022/05/02 01:58:38;;;;;;;6.82;5.88;;;;;;;9.99;60.68;101465.09;7396117;19;20035;-65
2022/05/02 02:01:06;;;;;;;8.98;5.90;;;;;;;9.97;60.65;101469.47;7394277;19;20018;-65
2022/05/02 02:03:34;;;;;;;7.63;5.72;;;;;;;9.94;60.72;101463.41;7394844;19;20031;-65
2022/05/02 02:06:00;;;;;;;6.55;5.35;;;;;;;9.94;60.97;101465.13;7394291;19;20037;-65
2022/05/02 02:08:30;;;;;;;6.88;5.28;;;;;;;9.93;60.92;101466.91;7395921;19;20078;-65
2022/05/02 02:11:00;;;;;;;7.82;5.90;;;;;;;9.93;60.96;101460.75;7394699;19;20015;-65
2022/05/02 02:13:31;;;;;;;7.70;5.75;;;;;;;9.92;61.16;101473.00;7394116;19;20018;-65
2022/05/02 02:16:01;;;;;;;9.70;5.95;;;;;;;9.91;61.14;101465.16;7396118;19;20028;-65
2022/05/02 02:18:29;;;;;;;7.93;6.35;;;;;;;9.91;61.18;101465.16;7395812;19;20018;-65
2022/05/02 02:20:58;;;;;;;9.30;6.10;;;;;;;9.88;61.36;101466.06;7395227;19;20014;-65
2022/05/02 02:23:26;;;;;;;9.75;6.53;;;;;;;9.89;61.41;101469.53;7394881;19;20035;-65
2022/05/02 02:25:54;;;;;;;6.22;5.50;;;;;;;9.87;61.46;101466.94;7394867;19;20050;-65
2022/05/02 02:28:23;;;;;;;12.88;7.05;;;;;;;9.85;61.63;101473.94;7393056;19;20481;-65
2022/05/02 02:30:54;;;;;;;9.40;6.50;;;;;;;9.82;61.61;101468.72;7394067;19;20014;-65
2022/05/02 02:33:23;;;;;;;8.55;6.38;;;;;;;9.80;61.68;101467.84;7395209;19;20015;-65
2022/05/02 02:35:51;;;;;;;7.47;6.22;;;;;;;9.76;61.78;101467.00;7394500;19;20037;-65
2022/05/02 02:38:19;;;;;;;9.05;6.10;;;;;;;9.74;61.86;101465.28;7394403;19;20319;-65
2022/05/02 02:40:48;;;;;;;9.38;6.20;;;;;;;9.72;62.05;101462.66;7393459;19;20022;-65
2022/05/02 02:43:16;;;;;;;8.15;6.50;;;;;;;9.69;62.06;101465.31;7393871;19;20015;-65
2022/05/02 02:45:44;;;;;;;8.73;6.32;;;;;;;9.68;62.44;101460.06;7393034;19;20022;-65
2022/05/02 02:48:15;;;;;;;9.13;6.25;;;;;;;9.67;62.46;101455.69;7394806;19;20035;-65
2022/05/02 02:50:43;;;;;;;8.82;6.10;;;;;;;9.66;62.38;101460.09;7393893;19;20022;-64
2022/05/02 02:53:11;;;;;;;9.88;6.47;;;;;;;9.67;62.64;101466.19;7394999;19;20068;-64
2022/05/02 02:55:39;;;;;;;7.35;6.07;;;;;;;9.65;62.59;101465.34;7394527;19;20022;-65
2022/05/02 02:58:14;;;;;;;10.02;6.35;;;;;;;9.62;62.66;101467.09;7391856;19;20027;-65
2022/05/02 03:00:42;;;;;;;10.73;6.78;;;;;;;9.57;62.73;101465.38;7392425;19;20018;-65
2022/05/02 03:03:10;;;;;;;8.50;6.15;;;;;;;9.51;62.92;101468.91;7392414;19;20035;-65
2022/05/02 03:08:23;;;;;;;7.68;5.85;;;;;;;9.41;62.99;101464.59;7394609;19;20343;-65
2022/05/02 03:10:51;;;;;;;6.88;5.82;;;;;;;9.36;63.13;101466.38;7400462;19;20017;-65
2022/05/02 03:13:19;;;;;;;7.15;5.85;;;;;;;9.33;63.14;101461.16;7398863;19;20019;-65
2022/05/02 03:15:48;;;;;;;11.85;6.07;;;;;;;9.29;63.22;101450.69;7398886;19;20031;-65
2022/05/02 03:18:16;;;;;;;8.27;6.07;;;;;;;9.29;63.43;101461.16;7401507;19;20015;-65
2022/05/02 03:20:46;;;;;;;9.45;6.18;;;;;;;9.29;63.32;101460.31;7399527;19;20028;-65
2022/05/02 03:23:15;;;;;;;7.50;6.47;;;;;;;9.27;63.45;101460.28;7400485;19;20014;-65
2022/05/02 03:25:43;;;;;;;8.63;6.15;;;;;;;9.27;63.61;101456.81;7401025;19;20019;-65
2022/05/02 03:28:11;;;;;;;9.45;7.00;;;;;;;9.25;63.55;101454.22;7397843;19;20035;-65
2022/05/02 03:30:39;;;;;;;10.23;6.57;;;;;;;9.23;63.85;101455.09;7398110;19;20027;-65
2022/05/02 03:33:08;;;;;;;7.90;7.10;;;;;;;9.21;63.88;101456.84;7400271;19;20489;-65
2022/05/02 03:35:36;;;;;;;12.43;10.82;;;;;;;9.16;63.90;101449.00;7400480;19;20019;-65
2022/05/02 03:38:07;;;;;;;13.35;11.52;;;;;;;9.15;63.96;101449.91;7397509;19;20014;-65
2022/05/02 03:40:35;;;;;;;15.23;11.07;;;;;;;9.13;64.02;101443.78;7398945;19;20014;-65
2022/05/02 03:43:03;;;;;;;14.95;10.10;;;;;;;9.12;64.12;101444.66;7398696;19;20481;-65
2022/05/02 03:45:32;;;;;;;13.48;9.98;;;;;;;9.09;64.25;101448.16;7398085;19;20022;-65
2022/05/02 03:48:00;;;;;;;9.32;7.55;;;;;;;9.07;64.16;101446.44;7400624;19;20042;-65
2022/05/02 03:50:28;;;;;;;8.85;7.25;;;;;;;9.04;64.18;101441.22;7397292;19;20380;-65
2022/05/02 03:52:56;;;;;;;10.10;7.88;;;;;;;9.00;64.26;101444.69;7399505;19;20367;-65
2022/05/02 03:55:27;;;;;;;8.13;6.72;;;;;;;8.96;64.61;101438.63;7397233;19;20474;-65
2022/05/02 03:57:55;;;;;;;6.93;6.22;;;;;;;8.92;64.65;101434.28;7397251;19;20006;-65
2022/05/02 04:00:23;;;;;;;8.75;6.40;;;;;;;8.87;64.70;101442.16;7398419;19;20014;-65
2022/05/02 04:02:51;;;;;;;9.77;6.63;;;;;;;8.84;64.64;101442.16;7398626;19;20015;-66
2022/05/02 04:05:20;;;;;;;9.73;5.85;;;;;;;8.82;64.67;101437.81;7398715;19;20396;-65
2022/05/02 04:07:48;;;;;;;9.18;6.65;;;;;;;8.79;64.66;101431.69;7398624;19;20485;-65
2022/05/02 04:10:16;;;;;;;7.55;6.60;;;;;;;8.79;64.94;101438.69;7398204;19;20042;-65
2022/05/02 04:12:47;;;;;;;7.80;6.72;;;;;;;8.77;64.92;101430.84;7396747;19;20010;-65
2022/05/02 04:15:15;;;;;;;11.52;6.05;;;;;;;8.77;64.87;101429.94;7397561;19;20010;-65
2022/05/02 04:17:44;;;;;;;12.23;6.90;;;;;;;8.77;64.86;101436.06;7396970;19;20042;-65
2022/05/02 04:20:13;;;;;;;23.00;10.18;;;;;;;8.79;65.26;101428.22;7396132;19;20027;-65
2022/05/02 04:22:42;;;;;;;8.63;7.10;;;;;;;8.79;65.15;101433.44;7399007;19;20473;-66
2022/05/02 04:25:11;;;;;;;7.68;6.40;;;;;;;8.81;65.27;101431.72;7398587;19;20022;-66
2022/05/02 04:27:39;;;;;;;9.23;7.13;;;;;;;8.83;65.15;101447.41;7398672;19;20015;-65
2022/05/02 04:30:12;;;;;;;9.00;7.07;;;;;;;8.83;65.12;101450.00;7395226;19;20379;-65
2022/05/02 04:32:40;;;;;;;12.50;7.65;;;;;;;8.78;65.60;101458.75;7395612;19;20019;-65
2022/05/02 04:35:10;;;;;;;10.20;7.60;;;;;;;8.76;65.50;101454.41;7397902;19;20024;-64
2022/05/02 04:37:38;;;;;;;8.95;7.32;;;;;;;8.75;65.58;101448.28;7397974;19;20015;-65
2022/05/02 04:40:08;;;;;;;9.07;6.95;;;;;;;8.77;65.66;101437.81;7395905;19;20022;-65
2022/05/02 04:42:36;;;;;;;10.27;7.63;;;;;;;8.82;65.78;101437.81;7396012;19;20018;-65
2022/05/02 04:45:04;;;;;;;8.55;7.00;;;;;;;8.84;65.56;101441.28;7395918;19;20022;-65
2022/05/02 04:47:35;;;;;;;10.48;7.20;;;;;;;8.90;65.56;101457.84;7397669;19;20573;-65
2022/05/02 04:50:03;;;;;;;9.02;7.30;;;;;;;8.94;65.60;101458.69;7395754;19;20047;-68
2022/05/02 04:52:31;;;;;;;9.73;7.70;;;;;;;8.94;65.69;101463.94;7397584;19;20340;-65
2022/05/02 04:54:59;;;;;;;10.90;7.78;;;;;;;8.93;65.88;101468.31;7397985;19;20517;-65
2022/05/02 04:57:27;;;;;;;12.73;7.40;;;;;;;8.95;65.58;101471.78;7394811;19;20011;-64
2022/05/02 04:59:55;;;;;;;9.48;7.00;;;;;;;8.95;65.63;101471.78;7394635;19;20032;-66
2022/05/02 05:02:24;;;;;;;9.43;6.93;;;;;;;9.00;65.38;101473.50;7396326;19;20014;-65
2022/05/02 05:04:54;;;;;;;10.70;7.30;;;;;;;9.01;65.23;101470.91;7393095;19;20031;-65
2022/05/02 05:07:23;;;;;;;11.38;7.20;;;;;;;9.03;65.18;101469.13;7395986;19;20398;-65
2022/05/02 05:09:51;;;;;;;9.82;6.70;;;;;;;9.04;65.43;101464.78;7394236;19;20018;-66
2022/05/02 05:12:34;;;;;;;16.05;7.32;;;;;;;9.04;65.13;101465.63;7397506;19;20035;-64
2022/05/02 05:18:00;;;;;;;9.43;6.57;;;;;;;9.10;65.13;101464.75;7396312;19;20354;-67
2022/05/02 05:20:42;;;;;;;13.40;6.88;;;;;;;9.16;65.15;101469.09;7395574;19;20014;-65
2022/05/02 05:23:25;;;;;;;11.27;6.95;;;;;;;9.22;65.02;101471.69;7393488;19;20502;-65
2022/05/02 05:26:07;;;;;;;11.18;6.68;;;;;;;9.26;64.98;101471.66;7395298;19;20022;-65
2022/05/02 05:29:04;;;;;;;11.32;7.07;;;;;;;9.34;65.39;101466.38;7397595;19;20015;-65
2022/05/02 05:31:35;;;;;;;12.77;7.13;;;;;;;9.41;64.91;101470.69;7391736;19;20022;-64
2022/05/02 05:34:08;;;;;;;12.80;6.28;;;;;;;9.47;65.00;101468.94;7396375;19;20013;-66
2022/05/02 05:37:01;;;;;;;13.45;6.53;;;;;;;9.54;64.91;101462.78;7394526;19;20502;-64
2022/05/02 05:39:35;;;;;;;11.15;6.70;;;;;;;9.59;64.50;101459.25;7395539;19;20011;-64
2022/05/02 05:42:14;;;;;;;12.90;6.72;;;;;;;9.67;64.47;101461.84;7395784;19;20018;-64
2022/05/02 05:44:55;;;;;;;8.77;6.38;;;;;;;9.75;64.16;101460.00;7394568;19;20040;-64
2022/05/02 05:47:51;;;;;;;10.60;6.47;;;;;;;9.87;63.81;101458.19;7394694;19;20019;-64
2022/05/02 05:50:23;;;;;;;10.80;5.93;;;;;;;9.96;63.51;101455.50;7394324;19;20046;-67
2022/05/02 05:53:08;;;;;;;7.63;6.20;;;;;;;10.05;63.33;101452.81;7396327;19;20083;-64
2022/05/02 05:55:52;;;;;;;9.85;6.13;;;;;;;10.12;62.83;101453.63;7397211;19;20022;-64
2022/05/02 05:58:37;;;;;;;7.77;6.03;;;;;;;10.20;62.60;101459.69;7392897;19;20481;-65
2022/05/02 06:01:14;;;;;;;7.80;6.05;;;;;;;10.25;62.48;101455.25;7394161;19;20031;-65
2022/05/02 06:03:58;;;;;;;6.72;5.47;;;;;;;10.37;62.21;101450.81;7394635;19;20100;-66
2022/05/02 06:06:26;;;;;;;8.18;5.78;;;;;;;10.45;62.09;101451.63;7395206;19;20458;-64
2022/05/02 06:08:59;;;;;;;12.23;5.88;;;;;;;10.52;61.61;101448.03;7395301;19;20379;-64
2022/05/02 06:11:28;;;;;;;6.30;4.73;;;;;;;10.60;60.70;101453.19;7394185;19;20022;-65
2022/05/02 06:14:00;;;;;;;7.75;4.70;;;;;;;10.65;60.22;101448.78;7395159;19;20453;-64
2022/05/02 06:19:13;;;;;;;6.68;5.10;;;;;;;10.77;59.44;101447.78;7394998;19;20042;-65
2022/05/02 06:21:45;;;;;;;7.22;4.68;;;;;;;10.82;59.19;101453.84;7393307;19;20025;-64
2022/05/02 06:24:17;;;;;;;7.95;5.00;;;;;;;10.89;59.04;101458.16;7392857;19;20022;-64
2022/05/02 06:26:47;;;;;;;7.15;5.18;;;;;;;11.00;58.80;101455.38;7394964;19;20026;-64
2022/05/02 06:29:17;;;;;;;10.20;4.88;;;;;;;11.09;58.61;101462.28;7394621;19;20046;-65
2022/05/02 06:31:48;;;;;;;9.65;4.80;;;;;;;11.18;58.34;101454.28;7392856;19;20014;-65
2022/05/02 06:34:20;;;;;;;6.80;4.50;;;;;;;11.28;58.00;101456.81;7392954;19;20022;-65
2022/05/02 06:37:16;;;;;;;5.60;4.32;;;;;;;11.37;57.82;101449.66;7393753;19;20018;-65
2022/05/02 06:40:00;;;;;;;8.05;4.68;;;;;;;11.47;57.31;101449.53;7394046;19;20015;-65
2022/05/02 06:42:35;;;;;;;10.52;4.97;;;;;;;11.55;57.22;101459.03;7395476;19;20025;-66
2022/05/02 06:45:23;;;;;;;8.43;4.75;;;;;;;11.62;57.03;101457.19;7401167;19;20031;-68
2022/05/02 06:48:06;;;;;;;7.35;5.20;;;;;;;11.69;56.87;101457.94;7402424;19;20029;-66
2022/05/02 06:50:36;;;;;;;6.30;4.70;;;;;;;11.74;56.91;101456.16;7401049;19;20021;-66
2022/05/02 06:53:23;;;;;;;6.78;5.05;;;;;;;11.78;56.82;101449.06;7401274;19;20045;-66
2022/05/02 06:56:01;;;;;;;5.95;5.10;;;;;;;11.83;56.68;101447.25;7401964;19;20015;-66
2022/05/02 06:58:41;;;;;;;21.98;13.23;;;;;;;11.88;56.46;101448.06;7398470;19;20508;-65
2022/05/02 07:01:17;;;;;;;9.48;5.57;;;;;;;11.93;56.35;101445.31;7399463;19;20031;-66
2022/05/02 07:04:04;;;;;;;12.57;6.63;;;;;;;11.96;56.03;101442.69;7401903;19;20019;-65
2022/05/02 07:06:47;;;;;;;9.57;4.40;;;;;;;11.98;55.95;101447.03;7401353;19;20033;-65
2022/05/02 07:09:23;;;;;;;6.68;4.43;;;;;;;12.00;56.06;101445.22;7398176;19;20039;-65
2022/05/02 07:12:05;;;;;;;8.15;4.47;;;;;;;12.00;55.90;101450.50;7398596;19;20039;-65
2022/05/02 07:14:44;;;;;;;7.68;4.75;;;;;;;11.97;55.84;101440.03;7398259;19;20018;-65
2022/05/02 07:17:32;;;;;;;6.88;4.63;;;;;;;11.97;55.92;101450.56;7399621;19;20015;-65
2022/05/02 07:20:05;;;;;;;6.43;4.53;;;;;;;11.98;55.82;101440.88;7399373;19;20014;-65
2022/05/02 07:22:37;;;;;;;10.32;5.13;;;;;;;12.01;55.69;101446.13;7400827;19;20359;-66
2022/05/02 07:25:12;;;;;;;5.97;4.65;;;;;;;12.03;55.69;101439.94;7399429;19;20070;-66
2022/05/02 07:28:08;;;;;;;17.40;12.60;;;;;;;12.07;55.16;101440.75;7400896;19;20029;-66
2022/05/02 07:30:37;;;;;;;10.27;7.78;;;;;;;12.11;55.43;101441.59;7397600;19;20022;-65
2022/05/02 07:33:06;;;;;;;9.73;5.63;;;;;;;12.16;55.32;101445.00;7400335;19;20130;-66
2022/05/02 07:35:37;;;;;;;6.30;5.10;;;;;;;12.22;55.24;101444.91;7397469;19;20024;-66
2022/05/02 07:38:15;;;;;;;7.45;4.38;;;;;;;12.28;55.04;101441.28;7400358;19;20018;-65
2022/05/02 07:41:22;;;;;;;6.30;3.78;;;;;;;12.33;54.78;101436.78;7398723;19;20039;-66
2022/05/02 07:43:40;;;;;;;8.02;3.75;;;;;;;12.39;54.74;101436.69;7399048;19;20021;-66
2022/05/02 07:46:09;;;;;;;7.82;4.65;;;;;;;12.47;54.62;101433.91;7397297;19;20014;-66
2022/05/02 07:48:44;;;;;;;6.00;4.00;;;;;;;12.56;54.37;101433.72;7399687;19;20027;-65
2022/05/02 07:51:14;;;;;;;6.57;4.32;;;;;;;12.62;54.14;101443.28;7397042;19;20019;-65
2022/05/02 07:53:45;;;;;;;6.47;4.25;;;;;;;12.69;53.84;101431.75;7400292;19;20031;-66
2022/05/02 07:56:16;;;;;;;10.32;5.25;;;;;;;12.75;53.52;101438.66;7398681;19;20031;-66
2022/05/02 07:58:48;;;;;;;9.27;4.45;;;;;;;12.83;53.04;101442.88;7397050;19;20017;-65
2022/05/02 08:01:19;;;;;;;5.88;4.40;;;;;;;12.91;52.87;101442.72;7397101;19;20022;-64
2022/05/02 08:03:48;;;;;;;8.75;5.68;;;;;;;12.98;52.53;101441.69;7399841;19;20032;-65
2022/05/02 08:06:38;;;;;;;8.32;5.43;;;;;;;13.07;52.35;101443.25;7396658;19;20031;-65
2022/05/02 08:09:19;;;;;;;5.88;4.63;;;;;;;13.17;51.89;101436.03;7399940;19;20019;-65
2022/05/02 08:12:00;;;;;;;7.95;4.90;;;;;;;13.27;51.78;101436.69;7396512;19;20043;-65
2022/05/02 08:14:41;;;;;;;11.98;4.78;;;;;;;13.33;51.45;101428.66;7397076;19;20032;-65
2022/05/02 08:17:20;;;;;;;5.75;4.30;;;;;;;13.40;51.09;101430.28;7397048;19;20022;-64
2022/05/02 08:19:58;;;;;;;7.45;4.47;;;;;;;13.48;50.83;101433.63;7399040;19;20063;-64
2022/05/02 08:28:10;;;;;;;8.35;3.70;;;;;;;13.72;49.38;101418.13;7398545;19;20017;-65
2022/05/02 08:30:58;;;;;;;6.03;4.50;;;;;;;13.79;48.64;101418.84;7395088;19;20474;-64
2022/05/02 08:33:28;;;;;;;6.13;3.53;;;;;;;13.87;48.54;101416.03;7398502;19;20050;-65
2022/05/02 08:36:00;;;;;;;4.60;3.42;;;;;;;13.95;48.30;101419.31;7396328;19;20010;-65
2022/05/02 08:38:43;;;;;;;5.78;3.42;;;;;;;14.02;48.02;101427.03;7398259;19;20028;-65
2022/05/02 08:41:45;;;;;;;13.77;9.05;;;;;;;14.12;47.77;101422.41;7396393;19;20078;-65
2022/05/02 08:44:49;;;;;;;10.95;5.78;;;;;;;14.21;47.33;101416.03;7395178;19;20014;-65
2022/05/02 08:47:55;;;;;;;8.23;4.82;;;;;;;14.31;47.19;101427.22;7398330;19;20044;-65
2022/05/02 08:50:35;;;;;;;5.82;4.05;;;;;;;14.39;46.88;101417.28;7395965;19;20035;-65
2022/05/02 08:53:31;;;;;;;4.65;2.90;;;;;;;14.45;46.56;101413.63;7397851;19;20018;-64
2022/05/02 08:56:27;;;;;;;5.18;3.60;;;;;;;14.51;45.38;101416.13;7397742;19;20018;-65
2022/05/02 08:59:24;;;;;;;4.80;3.58;;;;;;;14.55;44.82;101412.47;7394644;19;20086;-65
2022/05/02 09:02:26;;;;;;;3.95;3.50;;;;;;;14.57;45.60;101407.16;7395212;19;20022;-65
2022/05/02 09:05:37;;;;;;;7.20;3.22;;;;;;;14.63;45.84;101406.97;7396786;19;20033;-65
2022/05/02 09:08:49;;;;;;;6.00;3.80;;;;;;;14.73;45.97;101397.91;7393785;19;20078;-65
2022/05/02 09:11:34;;;;;;;5.68;4.40;;;;;;;14.83;45.85;101399.38;7394812;19;20040;-68
2022/05/02 09:14:33;;;;;;;5.75;3.92;;;;;;;14.93;44.77;101397.34;7395471;19;20018;-66
2022/05/02 09:17:30;;;;;;;6.53;4.22;;;;;;;14.99;45.14;101393.66;7394873;19;20039;-66
2022/05/02 09:20:28;;;;;;;6.32;3.67;;;;;;;15.07;45.22;101389.00;7396663;19;20019;-66
2022/05/02 09:23:29;;;;;;;6.65;3.78;;;;;;;15.14;44.76;101387.03;7396103;19;20011;-66
2022/05/02 09:26:38;;;;;;;9.20;4.03;;;;;;;15.22;43.78;101389.44;7394875;19;20022;-66
2022/05/02 09:29:36;;;;;;;5.18;3.83;;;;;;;15.27;44.77;101383.09;7395585;19;20099;-66
2022/05/02 09:32:10;;;;;;;5.40;4.00;;;;;;;15.36;44.04;101376.66;7396699;19;20022;-66
2022/05/02 09:34:39;;;;;;;;;;;;;;;15.43;44.88;101378.19;7396655;19;20493;-66
2022/05/02 09:37:09;;;;;;;9.18;4.50;;;;;;;15.48;44.54;101376.25;7394496;19;19936;-66
2022/05/02 09:39:48;;;;;;;7.32;4.10;;;;;;;15.56;44.05;101378.66;7396923;19;20015;-66
2022/05/02 09:42:36;;;;;;;6.30;4.45;;;;;;;15.63;43.97;101374.91;7394484;19;20053;-66
2022/05/02 09:51:34;;;;;;;6.07;3.92;;;;;;;15.83;42.25;101360.16;7390812;19;20024;-66
2022/05/02 09:56:37;;;;;;;6.10;4.45;;;;;;;15.86;43.14;101353.91;7393990;19;20006;-66
2022/05/02 09:57:14;;;;;;;8.93;4.55;;;;;;;15.86;42.08;101351.25;7394901;19;20021;-66
2022/05/02 10:01:06;;;;;;;7.15;4.60;;;;;;;15.89;42.48;101352.03;7394218;19;20498;-66
2022/05/02 10:02:44;;;;;;;5.72;4.47;;;;;;;15.92;43.08;101353.69;7395229;19;20074;-66
2022/05/02 10:05:12;;;;;;;7.38;4.65;;;;;;;15.95;42.81;101345.66;7394895;19;20024;-66
2022/05/02 10:07:54;;;;;;;5.60;4.30;;;;;;;15.94;42.05;101349.22;7394162;19;20028;-66
2022/05/02 10:10:30;;;;;;;7.95;4.60;;;;;;;15.98;42.63;101342.06;7394970;19;20027;-66
2022/05/02 10:13:14;;;;;;;8.18;6.07;;;;;;;16.02;42.41;101333.94;7395361;19;20383;-66
2022/05/02 10:16:06;;;;;;;8.40;5.10;;;;;;;16.09;41.76;101331.97;7394291;19;20014;-66
2022/05/02 10:18:47;;;;;;;5.93;4.53;;;;;;;16.14;41.57;101327.34;7394669;19;20070;-67
2022/05/02 10:21:32;;;;;;;7.30;4.30;;;;;;;16.20;42.10;101331.56;7392435;19;20385;-66
2022/05/02 10:24:25;;;;;;;4.75;4.25;;;;;;;16.27;41.53;101335.72;7392255;19;20505;-66
2022/05/02 10:26:57;;;;;;;5.78;4.50;;;;;;;16.31;41.93;101334.69;7393163;19;20027;-66
2022/05/02 10:30:04;;;;;;;7.20;4.22;;;;;;;16.34;41.38;101325.75;7392995;19;20014;-65
2022/05/02 10:32:43;;;;;;;8.38;5.00;;;;;;;16.39;41.43;101323.81;7392667;19;20026;-66
2022/05/02 10:35:14;;;;;;;6.80;5.10;;;;;;;16.44;41.73;101325.38;7392717;19;20018;-66
2022/05/02 10:37:44;;;;;;;6.93;4.97;;;;;;;16.50;41.29;101320.78;7393042;19;20022;-66
2022/05/02 10:40:15;;;;;;;7.72;4.18;;;;;;;16.55;41.55;101311.72;7394296;19;20014;-67
2022/05/02 10:42:53;;;;;;;5.85;4.93;;;;;;;16.65;40.94;101312.22;7395590;19;20017;-66
2022/05/02 10:45:27;;;;;;;7.32;4.05;;;;;;;16.73;40.96;101306.63;7393993;19;20071;-66
2022/05/02 10:47:57;;;;;;;8.85;4.93;;;;;;;16.81;41.04;101299.28;7391785;19;20018;-66
2022/05/02 10:50:29;;;;;;;9.25;5.07;;;;;;;16.90;40.38;101298.03;7393141;19;20019;-66
2022/05/02 10:53:16;;;;;;;9.65;4.70;;;;;;;16.99;40.17;101292.41;7392395;19;20546;-66
2022/05/02 10:55:58;;;;;;;7.40;4.80;;;;;;;17.05;39.84;101291.31;7394560;19;20019;-67
2022/05/02 10:58:26;;;;;;;8.75;5.00;;;;;;;17.08;40.09;101278.78;7392158;19;20376;-66
2022/05/02 11:01:13;;;;;;;7.18;5.55;;;;;;;17.10;39.19;101281.38;7393305;19;20023;-66
2022/05/02 11:03:52;;;;;;;7.13;4.72;;;;;;;17.15;38.88;101281.16;7392572;19;20018;-66
2022/05/02 11:06:34;;;;;;;6.15;4.57;;;;;;;17.18;39.39;101283.72;7392521;19;20382;-64
2022/05/02 11:09:06;;;;;;;8.82;4.97;;;;;;;17.30;39.57;101279.69;7392133;19;20023;-65
2022/05/02 11:11:43;;;;;;;5.35;4.60;;;;;;;17.40;38.93;101281.91;7390980;19;20028;-65
2022/05/02 11:14:21;;;;;;;6.50;5.10;;;;;;;17.52;38.97;101277.00;7394124;19;20060;-65
2022/05/02 11:17:02;;;;;;;6.05;5.05;;;;;;;17.64;38.51;101279.16;7392177;19;20514;-65
2022/05/02 11:22:28;;;;;;;5.60;4.47;;;;;;;17.91;38.18;101266.44;7392279;19;20015;-64
2022/05/02 11:25:06;;;;;;;6.30;5.13;;;;;;;18.04;37.25;101264.13;7390755;19;20022;-66
2022/05/02 11:27:47;;;;;;;9.07;4.72;;;;;;;18.14;37.58;101258.44;7392987;19;20025;-66
2022/05/02 11:30:16;;;;;;;7.53;4.78;;;;;;;18.22;37.17;101257.16;7392699;19;20481;-66
2022/05/02 11:33:02;;;;;;;6.55;5.20;;;;;;;18.28;36.80;101252.47;7397483;19;20019;-66
2022/05/02 11:35:33;;;;;;;7.55;4.57;;;;;;;18.32;37.07;101244.28;7399883;19;20081;-66
2022/05/02 11:38:08;;;;;;;8.27;5.05;;;;;;;18.42;36.18;101247.38;7400115;19;20137;-66
2022/05/02 11:40:45;;;;;;;6.80;4.38;;;;;;;18.59;36.34;101241.28;7398511;19;20086;-66
2022/05/02 11:43:17;;;;;;;5.57;4.38;;;;;;;18.72;35.46;101241.56;7397717;19;20018;-66
2022/05/02 11:45:49;;;;;;;7.38;5.97;;;;;;;18.88;36.07;101244.34;7396914;19;20023;-66
2022/05/02 11:48:59;;;;;;;7.97;4.75;;;;;;;19.06;35.03;101237.28;7396632;19;20042;-66
2022/05/02 11:51:43;;;;;;;10.55;7.30;;;;;;;19.28;35.36;101231.72;7395455;19;20014;-66
2022/05/02 11:54:19;;;;;;;6.57;4.88;;;;;;;19.51;34.99;101230.56;7398994;19;20494;-66
2022/05/02 11:56:56;;;;;;;6.97;4.93;;;;;;;19.73;34.84;101226.78;7398779;19;20481;-65
2022/05/02 11:59:44;;;;;;;6.43;4.68;;;;;;;19.99;34.21;101222.78;7396368;19;20021;-66
2022/05/02 12:02:26;;;;;;;7.75;4.85;;;;;;;20.28;33.74;101207.00;7399737;19;20045;-66
2022/05/02 12:05:00;;;;;;;10.63;4.93;;;;;;;20.58;33.95;101216.03;7395898;19;20494;-66
2022/05/02 12:07:32;;;;;;;6.25;4.65;;;;;;;20.87;33.19;101208.22;7396293;19;20018;-65
2022/05/02 12:10:05;;;;;;;9.27;4.83;;;;;;;21.11;32.54;101200.59;7396011;19;20039;-66
2022/05/02 12:12:33;;;;;;;7.65;4.97;;;;;;;21.33;32.82;101205.47;7398312;19;20473;-65
2022/05/02 12:15:03;;;;;;;4.75;3.90;;;;;;;21.56;32.57;101200.59;7395530;19;20376;-64
2022/05/02 12:17:31;;;;;;;4.82;3.78;;;;;;;21.80;32.01;101204.44;7395334;19;20018;-65
2022/05/02 12:20:02;;;;;;;5.88;4.10;;;;;;;22.10;31.31;101195.47;7397120;19;20022;-65
2022/05/02 12:22:30;;;;;;;7.38;4.40;;;;;;;22.31;31.18;101195.06;7396651;19;20375;-66
2022/05/02 12:25:06;;;;;;;13.23;4.88;;;;;;;22.50;30.20;101193.91;7394863;19;20019;-66
2022/05/02 12:27:35;;;;;;;7.05;4.63;;;;;;;22.68;30.30;101184.66;7398053;19;20085;-66
2022/05/02 12:30:05;;;;;;;6.80;4.20;;;;;;;22.90;30.33;101183.25;7397080;19;20022;-65